createdAt,value
2023-05-16T00:01:41.951Z,13.57
2023-05-16T00:06:45.941Z,13.62
2023-05-16T00:11:51.804Z,14.12
2023-05-16T00:16:57.772Z,14.16
2023-05-16T00:22:01.902Z,13.01
2023-05-16T00:27:08.042Z,14.35
2023-05-16T00:32:12.077Z,14.24
2023-05-16T00:37:17.303Z,13.58
2023-05-16T00:42:22.677Z,14.04
2023-05-16T00:47:26.715Z,13.71
2023-05-16T00:52:31.031Z,13.92
2023-05-16T00:57:36.314Z,12.86
2023-05-16T01:02:40.355Z,13.20
2023-05-16T01:07:44.650Z,12.91
2023-05-16T01:13:02.477Z,12.66
2023-05-16T01:18:13.362Z,12.68
2023-05-16T01:23:35.423Z,12.40
2023-05-16T01:28:42.450Z,11.92
2023-05-16T01:33:46.756Z,12.64
2023-05-16T01:39:02.736Z,13.26
2023-05-16T01:44:17.985Z,13.83
2023-05-16T01:49:31.163Z,12.72
2023-05-16T01:54:39.539Z,11.56
2023-05-16T01:59:46.834Z,13.16
2023-05-16T02:04:51.703Z,12.50
2023-05-16T02:09:55.804Z,11.66
2023-05-16T02:15:01.234Z,11.49
2023-05-16T02:20:07.248Z,11.60
2023-05-16T02:25:11.588Z,11.74
2023-05-16T02:30:17.965Z,11.30
2023-05-16T02:35:22.928Z,12.15
2023-05-16T02:40:26.842Z,11.91
2023-05-16T02:45:32.667Z,11.75
2023-05-16T02:50:37.607Z,11.05
2023-05-16T02:55:42.097Z,11.71
2023-05-16T03:00:47.707Z,12.34
2023-05-16T03:05:53.287Z,11.26
2023-05-16T03:11:00.928Z,12.00
2023-05-16T03:16:10.710Z,12.32
2023-05-16T03:21:17.893Z,12.39
2023-05-16T03:26:25.055Z,12.66
2023-05-16T03:31:36.554Z,13.34
2023-05-16T03:36:44.919Z,13.86
2023-05-16T03:41:52.629Z,13.53
2023-05-16T03:47:00.256Z,14.17
2023-05-16T03:52:06.729Z,14.34
2023-05-16T03:57:11.963Z,14.40
2023-05-16T04:02:20.502Z,14.04
2023-05-16T04:07:27.855Z,13.65
2023-05-16T04:12:34.711Z,13.31
2023-05-16T04:17:43.148Z,14.13
2023-05-16T04:22:50.579Z,14.36
2023-05-16T04:27:58.017Z,14.62
2023-05-16T04:33:06.847Z,15.02
2023-05-16T04:38:13.446Z,15.59
2023-05-16T04:43:19.296Z,16.80
2023-05-16T04:48:28.432Z,16.81
2023-05-16T04:53:36.235Z,16.23
2023-05-16T04:58:43.693Z,15.99
2023-05-16T05:03:49.877Z,16.08
2023-05-16T05:08:56.599Z,16.88
2023-05-16T05:14:04.239Z,17.44
2023-05-16T05:19:11.463Z,17.21
2023-05-16T05:24:17.697Z,17.13
2023-05-16T05:29:25.003Z,16.79
2023-05-16T05:34:33.827Z,17.49
2023-05-16T05:39:40.785Z,18.01
2023-05-16T05:44:47.634Z,18.84
2023-05-16T05:49:56.181Z,18.60
2023-05-16T05:55:03.519Z,18.51
2023-05-16T06:00:12.194Z,18.29
2023-05-16T06:05:19.234Z,17.84
2023-05-16T06:10:24.331Z,19.07
2023-05-16T06:15:29.348Z,18.76
2023-05-16T06:20:37.015Z,19.09
2023-05-16T06:25:43.354Z,19.54
2023-05-16T06:30:52.457Z,19.18
2023-05-16T06:36:00.656Z,19.17
2023-05-16T06:41:07.916Z,18.46
2023-05-16T06:46:15.544Z,19.20
2023-05-16T06:51:23.641Z,19.40
2023-05-16T06:56:32.098Z,19.80
2023-05-16T07:01:39.713Z,20.11
2023-05-16T07:06:48.494Z,19.80
2023-05-16T07:11:54.503Z,19.74
2023-05-16T07:17:01.402Z,19.84
2023-05-16T07:22:09.443Z,19.72
2023-05-16T07:27:16.418Z,19.65
2023-05-16T07:32:22.580Z,20.21
2023-05-16T07:37:29.900Z,19.53
2023-05-16T07:42:37.424Z,19.69
2023-05-16T07:47:44.813Z,19.46
2023-05-16T07:52:53.826Z,20.64
2023-05-16T07:58:01.464Z,20.41
2023-05-16T08:03:09.041Z,20.79
2023-05-16T08:08:19.126Z,20.18
2023-05-16T08:13:29.685Z,19.36
2023-05-16T08:18:35.781Z,20.88
2023-05-16T08:23:43.973Z,21.05
2023-05-16T08:28:50.778Z,21.26
2023-05-16T08:33:55.785Z,21.87
2023-05-16T08:39:03.915Z,20.88
2023-05-16T08:44:13.778Z,20.84
2023-05-16T08:49:21.419Z,21.54
2023-05-16T08:54:30.451Z,20.81
2023-05-16T08:59:38.138Z,19.60
2023-05-16T09:04:47.572Z,21.05
2023-05-16T09:09:55.269Z,19.94
2023-05-16T09:15:04.401Z,20.27
2023-05-16T09:20:12.411Z,20.93
2023-05-16T09:25:30.118Z,21.10
2023-05-16T09:30:39.964Z,21.73
2023-05-16T09:35:47.245Z,21.77
2023-05-16T09:40:55.947Z,22.73
2023-05-16T09:46:04.156Z,23.24
2023-05-16T09:51:11.041Z,22.85
2023-05-16T09:56:19.948Z,23.16
2023-05-16T10:01:29.115Z,22.99
2023-05-16T10:06:34.618Z,23.58
2023-05-16T10:11:41.569Z,23.98
2023-05-16T10:16:50.492Z,21.89
2023-05-16T10:22:02.750Z,22.86
2023-05-16T10:27:12.886Z,23.22
2023-05-16T10:32:21.300Z,22.64
2023-05-16T10:37:30.083Z,22.81
2023-05-16T10:42:38.465Z,21.97
2023-05-16T10:47:53.844Z,23.03
2023-05-16T10:53:13.206Z,22.66
2023-05-16T10:58:41.574Z,23.27
2023-05-16T11:04:10.507Z,23.88
2023-05-16T11:09:27.503Z,24.02
2023-05-16T11:14:44.321Z,21.68
2023-05-16T11:19:51.135Z,22.18
2023-05-16T11:25:03.461Z,22.68
2023-05-16T11:30:18.186Z,22.16
2023-05-16T11:35:24.367Z,22.27
2023-05-16T11:40:29.625Z,22.74
2023-05-16T11:45:37.216Z,22.09
2023-05-16T11:50:42.809Z,22.82
2023-05-16T11:55:54.786Z,23.63
2023-05-16T12:01:02.315Z,23.57
2023-05-16T12:06:07.313Z,23.69
2023-05-16T12:11:12.541Z,22.38
2023-05-16T12:16:18.635Z,22.17
2023-05-16T12:21:23.612Z,22.72
2023-05-16T12:26:30.972Z,22.64
2023-05-16T12:31:42.069Z,22.72
2023-05-16T12:36:54.067Z,21.41
2023-05-16T12:42:06.663Z,21.62
2023-05-16T12:47:16.397Z,21.26
2023-05-16T12:52:21.915Z,21.94
2023-05-16T12:57:26.454Z,20.58
2023-05-16T13:02:33.607Z,22.01
2023-05-16T13:07:40.648Z,21.73
2023-05-16T13:12:46.249Z,21.66
2023-05-16T13:17:53.341Z,21.65
2023-05-16T13:23:00.065Z,21.89
2023-05-16T13:28:06.970Z,21.49
2023-05-16T13:33:14.175Z,21.82
2023-05-16T13:38:19.297Z,22.12
2023-05-16T13:43:23.620Z,21.20
2023-05-16T13:48:30.839Z,21.29
2023-05-16T13:53:39.755Z,19.95
2023-05-16T14:03:59.442Z,20.08
2023-05-16T14:09:04.617Z,20.32
2023-05-16T14:14:08.911Z,20.07
2023-05-16T14:19:17.281Z,19.26
2023-05-16T14:24:22.650Z,19.44
2023-05-16T14:29:27.046Z,19.61
2023-05-16T14:34:33.719Z,18.71
2023-05-16T14:39:37.999Z,18.61
2023-05-16T14:44:42.087Z,18.35
2023-05-16T14:49:47.593Z,18.10
2023-05-16T14:54:51.483Z,18.18
2023-05-16T14:59:55.599Z,18.48
2023-05-16T15:05:01.365Z,18.85
2023-05-16T15:10:07.018Z,17.91
2023-05-16T15:15:14.187Z,17.96
2023-05-16T15:20:23.455Z,18.08
2023-05-16T15:25:28.053Z,17.51
2023-05-16T15:30:33.573Z,17.82
2023-05-16T15:35:40.895Z,18.17
2023-05-16T15:40:47.068Z,18.42
2023-05-16T15:45:53.699Z,18.22
2023-05-16T15:50:59.860Z,17.94
2023-05-16T15:56:05.069Z,18.39
2023-05-16T16:01:09.493Z,18.09
2023-05-16T16:06:15.239Z,18.02
2023-05-16T16:11:21.556Z,17.76
2023-05-16T16:16:25.890Z,17.81
2023-05-16T16:21:33.510Z,17.93
2023-05-16T16:26:38.421Z,17.89
2023-05-16T16:31:42.539Z,17.47
2023-05-16T16:36:48.106Z,17.37
2023-05-16T16:41:54.064Z,17.36
2023-05-16T16:46:59.763Z,17.44
2023-05-16T16:52:06.656Z,17.85
2023-05-16T16:57:11.494Z,17.39
2023-05-16T17:02:15.860Z,16.92
2023-05-16T17:07:21.646Z,17.20
2023-05-16T17:12:28.613Z,16.82
2023-05-16T17:17:32.661Z,17.30
2023-05-16T17:22:38.213Z,17.06
2023-05-16T17:27:43.297Z,17.12
2023-05-16T17:32:47.723Z,17.51
2023-05-16T17:37:53.060Z,17.13
2023-05-16T17:42:57.220Z,17.02
2023-05-16T17:48:01.213Z,16.75
2023-05-16T17:53:07.830Z,16.30
2023-05-16T17:58:11.915Z,16.54
2023-05-16T18:03:16.950Z,16.52
2023-05-16T18:08:22.350Z,16.82
2023-05-16T18:13:26.403Z,16.57
2023-05-16T18:18:30.693Z,16.86
2023-05-16T18:23:39.505Z,17.00
2023-05-16T18:28:43.580Z,16.75
2023-05-16T18:33:47.787Z,16.89
2023-05-16T18:38:53.370Z,16.99
2023-05-16T18:43:57.406Z,16.92
2023-05-16T18:49:01.929Z,17.09
2023-05-16T18:54:07.524Z,17.11
2023-05-16T18:59:11.367Z,16.99
2023-05-16T19:04:15.434Z,16.58
2023-05-16T19:09:20.827Z,16.91
2023-05-16T19:14:27.006Z,17.27
2023-05-16T19:19:31.376Z,17.55
2023-05-16T19:24:36.930Z,17.54
2023-05-16T19:29:40.905Z,17.59
2023-05-16T19:34:45.057Z,17.80
2023-05-16T19:39:50.466Z,17.80
2023-05-16T19:44:54.571Z,17.23
2023-05-16T19:49:58.569Z,17.13
2023-05-16T19:55:04.739Z,17.05
2023-05-16T20:00:09.933Z,16.86
2023-05-16T20:05:19.978Z,16.35
2023-05-16T20:10:25.913Z,16.28
2023-05-16T20:15:29.829Z,15.98
2023-05-16T20:20:39.171Z,16.24
2023-05-16T20:25:44.999Z,16.44
2023-05-16T20:30:49.302Z,16.30
2023-05-16T20:35:53.603Z,16.64
2023-05-16T20:40:59.339Z,17.20
2023-05-16T20:46:10.085Z,16.87
2023-05-16T20:51:14.243Z,16.46
2023-05-16T20:56:22.484Z,16.60
2023-05-16T21:01:28.002Z,16.54
2023-05-16T21:06:34.976Z,16.52
2023-05-16T21:11:40.499Z,16.14
2023-05-16T21:16:44.805Z,16.31
2023-05-16T21:21:51.198Z,16.49
2023-05-16T21:27:17.759Z,16.54
2023-05-16T21:32:23.403Z,16.34
2023-05-16T21:37:28.113Z,16.41
2023-05-16T21:42:47.953Z,16.78
2023-05-16T21:47:57.362Z,15.93
2023-05-16T21:53:01.600Z,16.05
2023-05-16T21:58:07.336Z,15.98
2023-05-16T22:03:11.951Z,15.94
2023-05-16T22:08:16.407Z,15.83
2023-05-16T22:13:22.225Z,15.74
2023-05-16T22:18:26.454Z,15.33
2023-05-16T22:23:31.181Z,15.34
2023-05-16T22:28:36.952Z,15.01
2023-05-16T22:33:41.179Z,15.36
2023-05-16T22:38:45.864Z,14.96
2023-05-16T22:43:51.967Z,15.01
2023-05-16T22:48:57.818Z,15.13
2023-05-16T22:54:02.075Z,15.29
2023-05-16T22:59:08.020Z,15.32
2023-05-16T23:04:12.106Z,15.14
2023-05-16T23:09:16.206Z,14.69
2023-05-16T23:14:21.997Z,14.82
2023-05-16T23:19:26.291Z,14.92
2023-05-16T23:24:31.013Z,15.17
2023-05-16T23:29:36.728Z,15.33
2023-05-16T23:34:40.673Z,15.55
2023-05-16T23:39:46.185Z,15.37
2023-05-16T23:44:51.869Z,15.39
2023-05-16T23:49:56.207Z,14.93
2023-05-16T23:55:00.360Z,15.84
